Old Lyme, Connecticut
Current Conditions -  °F | °C
As of 7:15 PM on Wednesday 26 Nov 2014 (Local Time) from KSNC Reporting Station
Unknown Precip Unknown Precip  
Wind Chill: 27°   Ceiling: 1300
Heat Index: 36°   Visibility: 1.5mi
Dew Point: 34°   Wind: 14mph
Humidity: 93%   Direction: 10°N
Pressure: 29.7"   Gusts: 25mph
Location:  41.32°N, 72.33°W
Report Text: KSNC 270015Z AUTO 01012G22KT 1 1/2SM UP SCT001 OVC013 02/01 A2970 RMK AO2 P0010
Loading
Personal Weather Stations






























Interactive Weather Map New forecast layout! Learn more

10-Day Weather Forecast

Advertisements
Track Severe Weather on mobile